This is the latest recevied weather packets stored in our database for station/object KM4KMS. If no packets are shown the sender has not sent any weather packets the latest 10 day(s).
| Time | Temp. | Humidity | Pressure | Rain* | Wind** | Luminosity | Snow |
|---|---|---|---|---|---|---|---|
| 1777628195 | 6.67° C | 84% | 1012.3 hPa | 0 mm | - | 0 W/m² | - |
| 1777627891 | 6.67° C | 82% | 1012.5 hPa | 0 mm | - | 0 W/m² | - |
| 1777627589 | 6.67° C | 83% | 1012.5 hPa | 0 mm | - | 0 W/m² | - |
| 1777627284 | 7.22° C | 83% | 1012.7 hPa | 0 mm | - | 0 W/m² | - |
| 1777626982 | 7.22° C | 82% | 1012.6 hPa | 0 mm | - | 0 W/m² | - |
| 1777626678 | 7.22° C | 82% | 1012.8 hPa | 0 mm | - | 0 W/m² | - |
| 1777626374 | 7.22° C | 82% | 1012.9 hPa | 0 mm | - | 0 W/m² | - |
| 1777626072 | 7.22° C | 82% | 1012.8 hPa | 0 mm | - | 0 W/m² | - |
| 1777625767 | 7.78° C | 81% | 1013 hPa | 0 mm | - | 0 W/m² | - |
| 1777625463 | 7.78° C | 80% | 1012.8 hPa | 0 mm | - | 0 W/m² | - |
| 1777625159 | 7.78° C | 79% | 1012.7 hPa | 0 mm | - | 0 W/m² | - |
| 1777624855 | 7.78° C | 80% | 1012.9 hPa | 0 mm | - | 0 W/m² | - |
| 1777624551 | 7.22° C | 80% | 1013 hPa | 0 mm | - | 0 W/m² | - |
| 1777624245 | 7.78° C | 80% | 1013.2 hPa | 0 mm | - | 0 W/m² | - |
| 1777623939 | 7.78° C | 78% | 1013.2 hPa | 0 mm | - | 0 W/m² | - |
| 1777623636 | 7.78° C | 80% | 1013.2 hPa | 0 mm | - | 0 W/m² | - |
| 1777623334 | 7.78° C | 79% | 1013.1 hPa | 0 mm | - | 0 W/m² | - |
| 1777623030 | 7.78° C | 78% | 1013.5 hPa | 0 mm | - | 0 W/m² | - |
| 1777622727 | 6.67° C | 81% | 1013.5 hPa | 0 mm | - | 0 W/m² | - |
| 1777622424 | 6.67° C | 82% | 1013.4 hPa | 0 mm | - | 0 W/m² | - |
| 1777622121 | 6.67° C | 82% | 1013.6 hPa | 0 mm | - | 0 W/m² | - |
| 1777621816 | 6.67° C | 83% | 1013.2 hPa | 0 mm | - | 0 W/m² | - |
| 1777621513 | 6.11° C | 87% | 1013.5 hPa | 0 mm | - | 0 W/m² | - |
| 1777621209 | 5.56° C | 90% | 1013.3 hPa | 0 mm | - | 0 W/m² | - |
| 1777620905 | 5.56° C | 91% | 1013.1 hPa | 0 mm | - | 0 W/m² | - |
* Rain latest hour (hover to see other rain measurements)
** Current wind speed in m/s (hover to see current wind gust speed)